Time;durP1;ratioP1;P1;durP2;ratioP2;P2;SDS_P1;SDS_P2;PMS_P1;PMS_P2;Temp;Humidity;BMP_temperature;BMP_pressure;BME280_temperature;BME280_humidity;BME280_pressure;Samples;Min_cycle;Max_cycle;Signal;HPM_P1;HPM_P2
2020/12/31 00:00:10;;;;;;;22.07;7.43;;;6.00;99.90;;;;;;4973223;28;20247;-81
2020/12/31 00:02:36;;;;;;;18.50;8.40;;;6.10;99.90;;;;;;4991714;28;20233;-81
2020/12/31 00:05:04;;;;;;;17.60;8.03;;;6.00;99.90;;;;;;4992833;28;20258;-81
2020/12/31 00:07:31;;;;;;;20.57;8.27;;;6.00;99.90;;;;;;4995473;28;20229;-81
2020/12/31 00:09:57;;;;;;;16.67;7.43;;;5.90;99.90;;;;;;4995763;28;20708;-80
2020/12/31 00:12:24;;;;;;;18.53;7.27;;;5.90;99.90;;;;;;4995928;28;20206;-81
2020/12/31 00:14:50;;;;;;;21.47;8.23;;;5.90;99.90;;;;;;4995371;28;20206;-81
2020/12/31 00:17:16;;;;;;;17.57;6.80;;;5.90;99.90;;;;;;4996121;28;20268;-81
2020/12/31 00:19:43;;;;;;;25.67;7.50;;;6.00;99.90;;;;;;4996317;28;20204;-81
2020/12/31 00:22:10;;;;;;;20.00;7.60;;;5.90;99.90;;;;;;4995310;28;20292;-80
2020/12/31 00:24:37;;;;;;;18.20;6.73;;;5.90;99.90;;;;;;4995306;28;20676;-81
2020/12/31 00:27:03;;;;;;;14.23;6.80;;;5.80;99.90;;;;;;4995533;28;20202;-81
2020/12/31 00:29:30;;;;;;;22.73;6.83;;;5.80;99.90;;;;;;4995488;28;20231;-81
2020/12/31 00:31:56;;;;;;;21.87;7.33;;;5.90;99.90;;;;;;4995648;28;20213;-81
2020/12/31 00:34:23;;;;;;;24.40;7.97;;;5.90;99.90;;;;;;4995573;28;20777;-81
2020/12/31 00:36:50;;;;;;;22.43;7.93;;;5.90;99.90;;;;;;4995172;28;20314;-81
2020/12/31 00:39:17;;;;;;;20.70;7.80;;;5.90;99.90;;;;;;4993570;28;20207;-81
2020/12/31 00:41:44;;;;;;;22.43;7.83;;;5.90;99.90;;;;;;4993740;28;20304;-81
2020/12/31 00:44:10;;;;;;;18.80;6.23;;;5.80;99.90;;;;;;4994982;28;20615;-81
2020/12/31 00:46:37;;;;;;;13.57;6.23;;;5.80;99.90;;;;;;4995236;28;20623;-81
2020/12/31 00:49:03;;;;;;;16.60;6.20;;;5.80;99.90;;;;;;4991726;28;20212;-81
2020/12/31 00:51:30;;;;;;;15.07;5.70;;;5.80;99.90;;;;;;4989519;28;20231;-81
2020/12/31 00:53:56;;;;;;;12.03;5.17;;;6.00;99.90;;;;;;4995288;28;20239;-81
2020/12/31 00:56:24;;;;;;;14.13;5.03;;;6.10;99.90;;;;;;4995364;28;20228;-81
2020/12/31 00:58:50;;;;;;;13.27;5.97;;;6.00;99.90;;;;;;4994356;28;20710;-81
2020/12/31 01:01:17;;;;;;;12.63;5.03;;;6.00;99.90;;;;;;4992373;28;20234;-81
2020/12/31 01:03:43;;;;;;;15.23;5.33;;;6.00;99.90;;;;;;4994730;28;20197;-81
2020/12/31 01:06:10;;;;;;;8.83;4.90;;;6.10;99.90;;;;;;4993691;28;20571;-81
2020/12/31 01:08:36;;;;;;;13.07;5.93;;;6.10;99.90;;;;;;4994763;28;20199;-81
2020/12/31 01:11:03;;;;;;;12.50;5.93;;;6.10;99.90;;;;;;4994563;28;20696;-81
2020/12/31 01:13:30;;;;;;;11.53;5.70;;;6.10;99.90;;;;;;4994704;28;20243;-81
2020/12/31 01:15:57;;;;;;;9.03;5.10;;;6.00;99.90;;;;;;4993854;28;20261;-81
2020/12/31 01:18:23;;;;;;;12.27;5.60;;;6.00;99.90;;;;;;4993799;28;20239;-81
2020/12/31 01:20:50;;;;;;;12.40;4.80;;;6.00;99.90;;;;;;4985928;28;20234;-81
2020/12/31 01:23:16;;;;;;;16.73;5.10;;;6.00;99.90;;;;;;4994783;28;20234;-81
2020/12/31 01:25:42;;;;;;;12.97;5.00;;;6.00;99.90;;;;;;4994932;28;20290;-81
2020/12/31 01:28:09;;;;;;;11.87;5.00;;;5.90;99.90;;;;;;4991439;28;20213;-81
2020/12/31 01:30:36;;;;;;;12.13;5.20;;;5.80;99.90;;;;;;4975445;28;20649;-81
2020/12/31 01:33:03;;;;;;;9.73;5.13;;;5.70;99.90;;;;;;4975135;28;20213;-81
2020/12/31 01:35:29;;;;;;;12.43;4.80;;;5.70;99.90;;;;;;4974690;28;20260;-81
2020/12/31 01:37:55;;;;;;;10.77;5.17;;;5.80;99.90;;;;;;4987983;28;20672;-81
2020/12/31 01:40:22;;;;;;;12.13;5.30;;;5.80;99.90;;;;;;4987070;28;20252;-80
2020/12/31 01:42:48;;;;;;;14.40;5.50;;;5.90;99.90;;;;;;4978793;28;20228;-81
2020/12/31 01:45:15;;;;;;;16.47;5.90;;;5.90;99.90;;;;;;4992424;28;20291;-81
2020/12/31 01:47:43;;;;;;;12.90;5.30;;;5.90;99.90;;;;;;4994206;28;20262;-81
2020/12/31 01:50:11;;;;;;;14.27;5.33;;;6.00;99.90;;;;;;4993146;28;20233;-81
2020/12/31 01:52:37;;;;;;;15.03;5.30;;;5.90;99.90;;;;;;4994185;28;20255;-81
2020/12/31 01:55:04;;;;;;;13.50;4.50;;;6.00;99.90;;;;;;4994205;28;20267;-81
2020/12/31 01:57:31;;;;;;;12.27;4.77;;;6.00;99.90;;;;;;4993258;28;20224;-88
2020/12/31 01:59:57;;;;;;;7.87;4.60;;;6.00;99.90;;;;;;4982032;28;20227;-81
2020/12/31 02:02:24;;;;;;;13.63;4.27;;;5.90;99.90;;;;;;4974107;28;20288;-82
2020/12/31 02:04:53;;;;;;;7.90;4.40;;;6.00;99.90;;;;;;4986298;28;20229;-82
2020/12/31 02:07:21;;;;;;;8.77;4.53;;;5.90;99.90;;;;;;4993631;28;20199;-82
2020/12/31 02:09:47;;;;;;;10.47;5.17;;;5.90;99.90;;;;;;4993989;28;20207;-82
2020/12/31 02:12:14;;;;;;;11.90;4.53;;;5.90;99.90;;;;;;4987783;28;20312;-82
2020/12/31 02:14:48;;;;;;;11.40;4.80;;;5.80;99.90;;;;;;4974702;28;20236;-82
2020/12/31 02:17:15;;;;;;;12.83;5.17;;;5.80;99.90;;;;;;4975149;28;20597;-82
2020/12/31 02:19:41;;;;;;;11.43;5.10;;;5.80;99.90;;;;;;4993092;28;20220;-82
2020/12/31 02:22:12;;;;;;;10.33;5.20;;;5.80;99.90;;;;;;4994137;28;20212;-82
2020/12/31 02:24:38;;;;;;;15.20;6.30;;;5.80;99.90;;;;;;4993263;28;20682;-82
2020/12/31 02:27:05;;;;;;;9.33;5.50;;;5.80;99.90;;;;;;4993302;28;20681;-82
2020/12/31 02:29:32;;;;;;;11.63;5.47;;;5.80;99.90;;;;;;4980791;28;20214;-82
2020/12/31 02:31:58;;;;;;;7.80;4.60;;;5.70;99.90;;;;;;4993438;28;20197;-82
2020/12/31 02:34:25;;;;;;;10.87;5.23;;;5.70;99.90;;;;;;4992888;28;20204;-82
2020/12/31 02:36:52;;;;;;;11.00;4.40;;;5.70;99.90;;;;;;4988632;28;20236;-82
2020/12/31 02:39:19;;;;;;;11.67;5.07;;;5.70;99.90;;;;;;4976489;28;20229;-82
2020/12/31 02:41:46;;;;;;;9.43;4.63;;;5.70;99.90;;;;;;4978773;28;20296;-82
2020/12/31 02:44:13;;;;;;;12.37;4.87;;;5.70;99.90;;;;;;4982102;28;20241;-82
2020/12/31 02:46:39;;;;;;;10.77;4.47;;;5.70;99.90;;;;;;4974287;28;20209;-82
2020/12/31 02:49:06;;;;;;;9.20;4.20;;;5.70;99.90;;;;;;4979926;28;20208;-82
2020/12/31 02:51:34;;;;;;;8.77;3.83;;;5.70;99.90;;;;;;4992756;28;20221;-82
2020/12/31 02:54:01;;;;;;;8.40;3.90;;;5.80;99.90;;;;;;4992506;28;20198;-82
2020/12/31 02:56:28;;;;;;;9.63;4.13;;;5.80;99.90;;;;;;4992688;28;20236;-82
2020/12/31 02:58:55;;;;;;;9.33;3.93;;;5.80;99.90;;;;;;4992685;28;20288;-82
2020/12/31 03:01:22;;;;;;;10.17;3.77;;;5.80;99.90;;;;;;4974191;28;20236;-82
2020/12/31 03:03:49;;;;;;;8.13;3.60;;;5.90;99.90;;;;;;4973344;28;20263;-82
2020/12/31 03:06:16;;;;;;;6.47;3.43;;;5.90;99.90;;;;;;4985382;28;20750;-82
2020/12/31 03:08:43;;;;;;;7.53;3.30;;;5.90;99.90;;;;;;4992973;28;20233;-82
2020/12/31 03:11:13;;;;;;;8.60;3.30;;;5.90;99.90;;;;;;4992976;28;20635;-82
2020/12/31 03:13:40;;;;;;;5.77;2.83;;;5.90;99.90;;;;;;4992702;28;20251;-82
2020/12/31 03:16:06;;;;;;;7.83;2.90;;;5.90;99.90;;;;;;4992002;28;20307;-82
2020/12/31 03:18:33;;;;;;;9.83;3.10;;;5.90;99.90;;;;;;4993092;28;20204;-81
2020/12/31 03:20:59;;;;;;;6.27;3.07;;;5.90;99.90;;;;;;4992833;28;20938;-82
2020/12/31 03:23:26;;;;;;;8.40;3.00;;;5.90;99.90;;;;;;4992940;28;20228;-82
2020/12/31 03:25:52;;;;;;;6.77;3.13;;;5.80;99.90;;;;;;4988026;28;20223;-82
2020/12/31 03:28:19;;;;;;;4.93;2.77;;;5.80;99.90;;;;;;4977343;28;20237;-81
2020/12/31 03:30:47;;;;;;;5.63;2.70;;;5.80;99.90;;;;;;4991074;28;20234;-82
2020/12/31 03:33:14;;;;;;;2.60;2.03;;;5.70;99.90;;;;;;4992910;28;20232;-81
2020/12/31 03:35:42;;;;;;;3.03;2.40;;;5.70;99.90;;;;;;4992786;28;20228;-81
2020/12/31 03:38:08;;;;;;;2.80;2.13;;;5.70;99.90;;;;;;4992479;28;20673;-82
2020/12/31 03:40:35;;;;;;;4.27;2.30;;;5.60;99.90;;;;;;4989472;28;20729;-81
2020/12/31 03:43:01;;;;;;;2.90;2.10;;;5.60;99.90;;;;;;4996039;28;20293;-81
2020/12/31 03:45:28;;;;;;;3.27;2.13;;;5.60;99.90;;;;;;4995477;28;20538;-81
2020/12/31 03:47:55;;;;;;;4.73;2.30;;;5.60;99.90;;;;;;4996499;28;20243;-81
2020/12/31 03:50:22;;;;;;;3.00;2.17;;;5.60;99.90;;;;;;4993631;28;20267;-82
2020/12/31 03:52:48;;;;;;;3.23;2.40;;;5.60;99.90;;;;;;4993267;28;20542;-82
2020/12/31 03:55:15;;;;;;;5.13;3.00;;;5.70;99.90;;;;;;4996232;28;20217;-81
2020/12/31 03:57:42;;;;;;;4.33;2.87;;;5.60;99.90;;;;;;4996071;28;20226;-81
2020/12/31 04:00:09;;;;;;;4.77;2.87;;;5.60;99.90;;;;;;4995589;28;20207;-80
2020/12/31 04:02:35;;;;;;;3.53;3.13;;;5.60;99.90;;;;;;4996227;28;20331;-80
2020/12/31 04:05:03;;;;;;;4.00;2.60;;;5.60;99.90;;;;;;4995684;28;20256;-82
2020/12/31 04:07:30;;;;;;;5.03;2.93;;;5.60;99.90;;;;;;4995661;28;20201;-81
2020/12/31 04:09:56;;;;;;;3.23;2.70;;;5.50;99.90;;;;;;4996143;28;20637;-81
2020/12/31 04:12:23;;;;;;;3.97;2.40;;;5.50;99.90;;;;;;4995786;28;20571;-81
2020/12/31 04:14:49;;;;;;;4.70;2.70;;;5.50;99.90;;;;;;4993912;28;20345;-81
2020/12/31 04:17:15;;;;;;;3.07;2.50;;;5.40;99.90;;;;;;4976009;28;20313;-81
2020/12/31 04:19:42;;;;;;;3.40;2.60;;;5.20;99.90;;;;;;4976660;28;20222;-81
2020/12/31 04:22:10;;;;;;;3.87;2.47;;;5.10;99.90;;;;;;4976304;28;20234;-81
2020/12/31 04:24:36;;;;;;;4.17;2.47;;;5.00;99.90;;;;;;4990513;28;20230;-81
2020/12/31 04:27:03;;;;;;;3.60;2.27;;;5.00;99.90;;;;;;4994851;28;20245;-81
2020/12/31 04:29:29;;;;;;;3.83;2.37;;;5.00;99.90;;;;;;4982005;28;20242;-81
2020/12/31 04:31:56;;;;;;;3.40;2.20;;;5.00;99.90;;;;;;4976156;28;20236;-81
2020/12/31 04:34:22;;;;;;;4.10;2.33;;;4.90;99.90;;;;;;4992397;28;20574;-81
2020/12/31 04:36:49;;;;;;;2.60;2.33;;;4.80;99.90;;;;;;4995710;28;20222;-81
2020/12/31 04:39:16;;;;;;;3.13;2.10;;;4.70;99.90;;;;;;4994456;28;20198;-81
2020/12/31 04:41:43;;;;;;;2.77;2.03;;;4.60;99.90;;;;;;4989719;28;20237;-81
2020/12/31 04:44:13;;;;;;;3.27;2.03;;;4.50;99.90;;;;;;4990935;28;20218;-81
2020/12/31 04:46:41;;;;;;;2.50;2.13;;;4.50;99.90;;;;;;4976121;28;20240;-82
2020/12/31 04:49:11;;;;;;;3.97;2.00;;;4.40;99.90;;;;;;4975705;28;20195;-81
2020/12/31 04:51:38;;;;;;;3.20;2.10;;;4.30;99.90;;;;;;4975733;28;20286;-81
2020/12/31 04:54:07;;;;;;;2.67;2.00;;;4.30;99.90;;;;;;4975273;28;20217;-82
2020/12/31 04:56:36;;;;;;;4.00;2.07;;;4.20;99.90;;;;;;4975559;28;20264;-82
2020/12/31 04:59:03;;;;;;;3.27;1.87;;;4.20;99.90;;;;;;4980138;28;20206;-81
2020/12/31 05:01:29;;;;;;;4.70;2.27;;;4.20;99.90;;;;;;4994258;28;20251;-81
2020/12/31 05:03:56;;;;;;;3.03;2.13;;;4.30;99.90;;;;;;4994581;28;20308;-81
2020/12/31 05:06:24;;;;;;;3.63;2.20;;;4.40;99.90;;;;;;4975953;28;20233;-81
2020/12/31 05:08:51;;;;;;;3.43;2.47;;;4.40;99.90;;;;;;4975474;28;20238;-81
2020/12/31 05:11:18;;;;;;;3.63;2.40;;;4.50;99.90;;;;;;4975536;28;20202;-81
2020/12/31 05:13:47;;;;;;;3.07;2.20;;;4.50;99.90;;;;;;4984570;28;20202;-82
2020/12/31 05:16:13;;;;;;;4.03;2.50;;;4.40;99.90;;;;;;4994262;28;20305;-82
2020/12/31 05:18:40;;;;;;;3.57;2.40;;;4.30;99.90;;;;;;4994825;28;20676;-81
2020/12/31 05:21:16;;;;;;;4.50;2.70;;;4.20;99.90;;;;;;4990272;28;20597;-81
2020/12/31 05:23:46;;;;;;;4.90;3.00;;;4.10;99.90;;;;;;4982763;28;20565;-82
2020/12/31 05:26:28;;;;;;;7.27;2.97;;;4.00;99.90;;;;;;4994092;28;20210;-81
2020/12/31 05:28:55;;;;;;;4.47;2.43;;;3.90;99.90;;;;;;4994693;28;20240;-81
2020/12/31 05:31:22;;;;;;;5.20;3.00;;;3.80;99.90;;;;;;4993082;28;20217;-82
2020/12/31 05:33:48;;;;;;;3.40;2.53;;;3.70;99.90;;;;;;4994832;28;20546;-82
2020/12/31 05:36:19;;;;;;;4.57;2.33;;;3.70;99.90;;;;;;4994017;28;20640;-82
2020/12/31 05:39:02;;;;;;;6.10;3.07;;;3.70;99.90;;;;;;4994268;28;20197;-82
2020/12/31 05:41:30;;;;;;;4.30;2.80;;;3.70;99.90;;;;;;4975500;28;20609;-81
2020/12/31 05:43:59;;;;;;;3.90;2.73;;;3.70;99.90;;;;;;4978969;28;20665;-81
2020/12/31 05:46:26;;;;;;;3.93;2.80;;;3.70;99.90;;;;;;4994408;28;20213;-81
2020/12/31 05:48:58;;;;;;;4.27;2.63;;;3.70;99.90;;;;;;4994195;28;20209;-81
2020/12/31 05:51:27;;;;;;;4.43;2.83;;;3.60;99.90;;;;;;4994251;28;20233;-81
2020/12/31 05:53:54;;;;;;;3.77;2.87;;;3.50;99.90;;;;;;4994443;28;20212;-81
2020/12/31 05:56:21;;;;;;;5.60;2.83;;;3.40;99.90;;;;;;4984839;28;20250;-81
2020/12/31 05:58:51;;;;;;;6.50;3.00;;;3.40;99.90;;;;;;4974380;28;20293;-81
2020/12/31 06:01:19;;;;;;;4.03;2.50;;;3.30;99.90;;;;;;4974854;28;20209;-81
2020/12/31 06:03:50;;;;;;;3.93;2.53;;;3.20;99.90;;;;;;4974437;28;20207;-81
2020/12/31 06:06:20;;;;;;;6.07;3.30;;;3.10;99.90;;;;;;4974746;28;20281;-81
2020/12/31 06:08:58;;;;;;;9.07;3.00;;;3.10;99.90;;;;;;4974100;28;20244;-81
2020/12/31 06:11:35;;;;;;;4.90;3.03;;;3.20;99.90;;;;;;4992398;28;20728;-81
2020/12/31 06:14:05;;;;;;;6.37;3.53;;;3.10;99.90;;;;;;4989438;28;20617;-81
2020/12/31 06:16:39;;;;;;;4.60;2.93;;;3.10;99.90;;;;;;4973900;28;20243;-82
2020/12/31 06:19:33;;;;;;;7.23;3.60;;;3.10;99.90;;;;;;4974456;28;20390;-82
2020/12/31 06:22:09;;;;;;;6.13;3.63;;;3.10;99.90;;;;;;4973908;28;20257;-81
2020/12/31 06:24:38;;;;;;;6.50;3.57;;;3.10;99.90;;;;;;4976939;28;20235;-81
2020/12/31 06:27:09;;;;;;;6.20;3.47;;;3.10;99.90;;;;;;4993334;28;20232;-82
2020/12/31 06:29:46;;;;;;;7.63;3.57;;;3.10;99.90;;;;;;4980583;28;20233;-81
2020/12/31 06:32:18;;;;;;;5.00;3.23;;;3.20;99.90;;;;;;4974539;28;20213;-82
2020/12/31 06:34:45;;;;;;;5.13;3.43;;;3.20;99.90;;;;;;4974187;28;20209;-81
2020/12/31 06:37:13;;;;;;;8.03;4.00;;;3.10;99.90;;;;;;4974271;28;20235;-81
2020/12/31 06:39:40;;;;;;;7.70;4.67;;;3.20;99.90;;;;;;4986315;28;20206;-82
2020/12/31 06:42:07;;;;;;;6.90;3.70;;;3.20;99.90;;;;;;4979169;28;20200;-81
2020/12/31 06:44:34;;;;;;;8.83;4.07;;;3.10;99.90;;;;;;4987414;28;20301;-81
2020/12/31 06:47:01;;;;;;;6.33;3.73;;;3.00;99.90;;;;;;4974229;28;20230;-81
2020/12/31 06:49:51;;;;;;;5.93;3.67;;;3.00;99.90;;;;;;4983892;28;20690;-81
2020/12/31 06:52:24;;;;;;;6.90;4.10;;;3.00;99.90;;;;;;4993388;28;20661;-81
2020/12/31 06:54:51;;;;;;;8.80;4.03;;;2.90;99.90;;;;;;4992404;28;20560;-81
2020/12/31 06:57:36;;;;;;;9.50;4.13;;;2.90;99.90;;;;;;4992505;28;20252;-82
2020/12/31 07:00:04;;;;;;;5.87;3.70;;;2.90;99.90;;;;;;4992554;28;20215;-81
2020/12/31 07:02:42;;;;;;;7.50;3.90;;;2.90;99.90;;;;;;4980561;28;20201;-81
2020/12/31 07:05:20;;;;;;;8.30;3.97;;;2.80;99.90;;;;;;4973290;28;20316;-79
2020/12/31 07:07:47;;;;;;;6.67;3.87;;;2.80;99.90;;;;;;4973455;28;20618;-81
2020/12/31 07:10:14;;;;;;;6.97;3.60;;;2.70;99.90;;;;;;4973884;28;20680;-81
2020/12/31 07:12:45;;;;;;;6.00;4.30;;;2.60;99.90;;;;;;4993230;28;20226;-80
2020/12/31 07:15:12;;;;;;;7.33;3.77;;;2.50;99.90;;;;;;4988811;28;20213;-81
2020/12/31 07:17:41;;;;;;;11.63;4.40;;;2.40;99.90;;;;;;4973503;28;20311;-80
2020/12/31 07:20:09;;;;;;;6.33;4.37;;;2.40;99.90;;;;;;4985124;28;20270;-79
2020/12/31 07:22:37;;;;;;;9.30;3.93;;;2.30;99.90;;;;;;4991624;28;20237;-80
2020/12/31 07:25:08;;;;;;;9.07;4.20;;;2.30;99.90;;;;;;4989593;28;20299;-81
2020/12/31 07:27:36;;;;;;;7.70;4.10;;;2.30;99.90;;;;;;4973532;28;20955;-80
2020/12/31 07:30:21;;;;;;;10.70;4.47;;;2.30;99.90;;;;;;4982222;28;20283;-79
2020/12/31 07:32:59;;;;;;;8.83;4.13;;;2.30;99.90;;;;;;4984539;28;20291;-80
2020/12/31 07:35:31;;;;;;;6.83;4.40;;;2.20;99.90;;;;;;4988148;28;20266;-82
2020/12/31 07:38:00;;;;;;;6.60;3.97;;;2.10;99.90;;;;;;4987542;28;20290;-82
2020/12/31 07:40:31;;;;;;;11.30;4.40;;;2.10;99.90;;;;;;4986224;28;20306;-83
2020/12/31 07:46:40;;;;;;;9.13;4.60;;;2.00;99.90;;;;;;4974302;28;20230;-81
2020/12/31 07:49:11;;;;;;;9.83;4.93;;;2.00;99.90;;;;;;4992687;28;20211;-81
2020/12/31 07:51:37;;;;;;;10.47;5.13;;;2.00;99.90;;;;;;4986881;28;20204;-81
2020/12/31 07:54:05;;;;;;;13.00;4.97;;;2.00;99.90;;;;;;4973243;28;20258;-81
2020/12/31 07:56:35;;;;;;;8.07;5.07;;;1.90;99.90;;;;;;4992328;28;20227;-81
2020/12/31 07:59:02;;;;;;;8.80;5.10;;;1.90;99.90;;;;;;4982102;28;20215;-81
2020/12/31 08:01:30;;;;;;;14.27;5.73;;;2.00;99.90;;;;;;4979136;28;20299;-82
2020/12/31 08:04:09;;;;;;;10.13;5.60;;;1.90;99.90;;;;;;4979452;28;20196;-81
2020/12/31 08:06:42;;;;;;;8.27;5.20;;;1.90;99.90;;;;;;4984840;28;20219;-81
2020/12/31 08:09:27;;;;;;;12.83;5.67;;;2.00;99.90;;;;;;4976505;28;20249;-81
2020/12/31 08:12:03;;;;;;;9.60;5.60;;;1.90;99.90;;;;;;4980888;28;20678;-81
2020/12/31 08:15:08;;;;;;;11.23;5.40;;;2.00;99.90;;;;;;4982889;28;20504;-81
2020/12/31 08:44:28;;;;;;;7.13;4.43;;;4.10;99.90;;;;;;5470923;23;20713;-82
2020/12/31 08:49:35;;;;;;;7.13;3.70;;;6.00;99.90;;;;;;5007443;28;20250;-83
2020/12/31 08:52:09;;;;;;;7.47;3.43;;;6.60;99.90;;;;;;5015005;28;20198;-83
2020/12/31 08:54:35;;;;;;;8.63;3.20;;;7.00;99.90;;;;;;5015391;28;20340;-83
2020/12/31 08:57:17;;;;;;;8.70;3.27;;;7.60;99.90;;;;;;5027047;28;20727;-83
2020/12/31 09:07:13;;;;;;;4.40;2.90;;;9.00;99.90;;;;;;4839968;29;20207;-80
2020/12/31 09:09:40;;;;;;;5.30;2.40;;;9.10;99.90;;;;;;4839506;29;20319;-78
2020/12/31 09:12:08;;;;;;;5.27;2.50;;;9.30;99.90;;;;;;4839485;29;20257;-81
2020/12/31 09:14:36;;;;;;;4.93;2.20;;;9.70;99.90;;;;;;4840619;29;20215;-80
2020/12/31 09:17:21;;;;;;;4.17;2.50;;;9.30;99.90;;;;;;4840863;29;20258;-80
2020/12/31 09:19:51;;;;;;;4.60;2.60;;;9.90;99.90;;;;;;4835909;29;20273;-80
2020/12/31 09:22:17;;;;;;;6.20;2.30;;;10.30;99.90;;;;;;4832688;29;20215;-80
2020/12/31 09:24:44;;;;;;;5.23;2.33;;;10.40;99.90;;;;;;4830087;29;20303;-81
2020/12/31 09:27:10;;;;;;;6.20;3.23;;;10.70;99.90;;;;;;4830211;29;20704;-81
2020/12/31 09:29:37;;;;;;;4.47;2.67;;;10.20;99.90;;;;;;4864478;29;20723;-81
2020/12/31 09:32:03;;;;;;;4.50;2.70;;;10.40;99.90;;;;;;4934039;29;20356;-81
2020/12/31 09:34:31;;;;;;;4.43;2.40;;;10.60;99.90;;;;;;4933807;29;20234;-81
2020/12/31 09:37:00;;;;;;;5.90;2.40;;;10.50;99.90;;;;;;4964428;28;20320;-78
2020/12/31 09:39:26;;;;;;;6.47;2.73;;;10.40;99.90;;;;;;4997854;28;20858;-80
2020/12/31 09:41:53;;;;;;;6.47;2.60;;;10.40;99.90;;;;;;5025475;28;20235;-80
2020/12/31 09:44:20;;;;;;;5.07;2.60;;;10.50;99.90;;;;;;5036182;28;20259;-81
2020/12/31 09:46:46;;;;;;;5.83;2.87;;;10.50;99.90;;;;;;5053852;28;20235;-81
2020/12/31 09:49:14;;;;;;;4.77;2.83;;;10.60;99.90;;;;;;5050026;28;20291;-80
2020/12/31 09:51:41;;;;;;;5.23;3.53;;;10.70;99.90;;;;;;5042490;28;20195;-80
2020/12/31 09:54:07;;;;;;;7.53;3.53;;;11.00;99.90;;;;;;5037273;28;20238;-81
2020/12/31 09:56:34;;;;;;;6.13;3.20;;;11.00;99.90;;;;;;5037880;28;20649;-81
2020/12/31 09:59:00;;;;;;;4.97;3.10;;;11.30;99.90;;;;;;5036366;28;20196;-81
2020/12/31 10:01:27;;;;;;;5.07;3.60;;;11.00;99.90;;;;;;5040770;28;20684;-81
2020/12/31 10:03:53;;;;;;;6.23;3.70;;;11.10;99.90;;;;;;5041302;28;20204;-83
2020/12/31 10:06:20;;;;;;;6.90;3.60;;;11.30;99.90;;;;;;5037449;28;20234;-82
2020/12/31 10:08:48;;;;;;;7.53;3.43;;;11.60;99.90;;;;;;5050835;28;20237;-80
2020/12/31 10:11:15;;;;;;;5.13;3.40;;;11.60;99.90;;;;;;5032263;28;20727;-80
2020/12/31 10:13:42;;;;;;;5.83;3.57;;;11.50;99.90;;;;;;5039195;28;20275;-80
2020/12/31 10:16:08;;;;;;;7.80;4.00;;;11.10;99.90;;;;;;5043501;28;20200;-80
2020/12/31 10:18:34;;;;;;;6.47;3.73;;;11.40;99.90;;;;;;5045303;28;20679;-80
2020/12/31 10:21:01;;;;;;;4.90;3.10;;;11.50;99.90;;;;;;5040089;28;20684;-80
2020/12/31 10:23:27;;;;;;;7.53;2.90;;;11.10;99.90;;;;;;5038874;28;20283;-80
2020/12/31 10:25:56;;;;;;;4.97;2.77;;;11.20;99.90;;;;;;5031551;28;20753;-79
2020/12/31 10:28:22;;;;;;;6.03;2.63;;;11.50;99.90;;;;;;5031843;28;20262;-79
2020/12/31 10:30:50;;;;;;;5.57;3.27;;;11.60;99.90;;;;;;5035218;28;20204;-79
2020/12/31 10:33:16;;;;;;;5.23;2.70;;;11.30;99.90;;;;;;5035507;28;20230;-80
2020/12/31 10:35:43;;;;;;;92.60;7.43;;;11.40;99.90;;;;;;5038125;28;20239;-79
2020/12/31 10:38:10;;;;;;;13.73;3.33;;;11.70;99.90;;;;;;5040359;28;20212;-79
2020/12/31 10:40:36;;;;;;;34.50;5.10;;;11.80;99.90;;;;;;5036604;28;20311;-79
2020/12/31 10:43:05;;;;;;;6.83;2.40;;;12.00;99.90;;;;;;5041253;28;20192;-79
2020/12/31 10:45:32;;;;;;;7.70;2.77;;;12.10;99.90;;;;;;5042258;28;20263;-79
2020/12/31 10:47:58;;;;;;;7.67;2.60;;;11.80;99.90;;;;;;5040063;28;20228;-79
2020/12/31 10:50:26;;;;;;;5.47;2.40;;;11.80;99.90;;;;;;5034811;28;20243;-80
2020/12/31 10:52:53;;;;;;;3.37;2.20;;;11.30;99.90;;;;;;5042756;28;20729;-79
2020/12/31 10:55:19;;;;;;;4.73;2.10;;;11.40;99.90;;;;;;5029619;28;20681;-80
2020/12/31 10:57:45;;;;;;;5.07;2.40;;;11.80;99.90;;;;;;5034621;28;20259;-80
2020/12/31 11:00:13;;;;;;;7.40;2.30;;;11.90;99.90;;;;;;5034086;28;20219;-80
2020/12/31 11:02:39;;;;;;;5.63;2.50;;;11.90;99.90;;;;;;5039403;28;20609;-80
2020/12/31 11:05:06;;;;;;;3.53;1.93;;;11.70;99.90;;;;;;5043489;28;20266;-79
2020/12/31 11:07:33;;;;;;;4.90;2.00;;;12.00;99.90;;;;;;5044161;28;20281;-80
2020/12/31 11:09:59;;;;;;;7.50;2.33;;;12.40;99.90;;;;;;5042229;28;20291;-79
2020/12/31 11:12:26;;;;;;;4.00;2.07;;;12.20;99.90;;;;;;5035368;28;20228;-80
2020/12/31 11:14:52;;;;;;;7.53;2.53;;;12.20;99.90;;;;;;5030427;28;20255;-80
2020/12/31 11:17:20;;;;;;;6.03;2.10;;;12.20;99.90;;;;;;5024434;28;20311;-80
2020/12/31 11:19:46;;;;;;;5.33;2.60;;;12.90;99.90;;;;;;5025530;28;20252;-80
2020/12/31 11:22:12;;;;;;;4.97;1.83;;;12.60;99.90;;;;;;5043941;28;20204;-80
2020/12/31 11:24:39;;;;;;;7.77;2.43;;;12.60;99.90;;;;;;5038529;28;20233;-80
2020/12/31 11:27:06;;;;;;;4.53;2.03;;;12.20;99.90;;;;;;5041746;28;20626;-80
2020/12/31 11:29:33;;;;;;;3.63;2.10;;;11.90;99.90;;;;;;5043232;28;20203;-80
2020/12/31 11:32:03;;;;;;;6.57;2.60;;;12.20;99.90;;;;;;5034708;28;20364;-79
2020/12/31 11:34:32;;;;;;;5.70;2.27;;;12.00;99.90;;;;;;5037118;28;20215;-79
2020/12/31 11:36:58;;;;;;;3.20;2.37;;;11.70;99.90;;;;;;5042257;28;20271;-80
2020/12/31 11:39:24;;;;;;;6.13;2.60;;;11.60;99.90;;;;;;5039535;28;20231;-80
2020/12/31 11:41:56;;;;;;;5.07;2.10;;;11.60;99.90;;;;;;5033971;28;20239;-81
2020/12/31 11:44:22;;;;;;;3.40;2.00;;;11.40;99.90;;;;;;5044687;28;20277;-80
2020/12/31 11:46:50;;;;;;;5.40;2.30;;;11.00;99.90;;;;;;5038309;28;20239;-79
2020/12/31 11:49:16;;;;;;;3.70;2.00;;;11.30;99.90;;;;;;5025977;28;20192;-80
2020/12/31 11:51:44;;;;;;;5.40;2.40;;;12.20;99.90;;;;;;5036066;28;20231;-80
2020/12/31 11:54:10;;;;;;;5.87;2.30;;;12.70;99.90;;;;;;5032427;28;20683;-81
2020/12/31 11:56:39;;;;;;;4.00;1.70;;;11.90;99.90;;;;;;5034287;28;20307;-81
2020/12/31 11:59:06;;;;;;;5.30;2.40;;;11.50;99.90;;;;;;5039388;28;20581;-81
2020/12/31 12:01:32;;;;;;;5.43;2.50;;;10.90;99.90;;;;;;5037706;28;20284;-82
2020/12/31 12:03:59;;;;;;;7.60;2.57;;;10.30;99.90;;;;;;5047097;28;20246;-80
2020/12/31 12:06:25;;;;;;;7.30;2.40;;;9.60;99.90;;;;;;5045621;28;20266;-81
2020/12/31 12:08:52;;;;;;;5.97;2.17;;;9.30;99.90;;;;;;5045056;28;20233;-81
2020/12/31 12:11:19;;;;;;;6.03;2.50;;;9.40;99.90;;;;;;5035583;28;20235;-80
2020/12/31 12:13:45;;;;;;;5.57;2.00;;;10.60;99.90;;;;;;5043484;28;20200;-80
2020/12/31 12:16:11;;;;;;;4.33;1.97;;;11.10;99.90;;;;;;5040665;28;20258;-80
2020/12/31 12:18:38;;;;;;;3.87;1.93;;;11.30;99.90;;;;;;5050483;28;20244;-80
2020/12/31 12:21:05;;;;;;;5.73;2.20;;;11.50;99.90;;;;;;5046445;28;20574;-81
2020/12/31 12:23:31;;;;;;;3.17;1.77;;;11.30;99.90;;;;;;5045281;28;20242;-80
2020/12/31 12:25:59;;;;;;;4.60;2.30;;;11.50;99.90;;;;;;5040660;28;20232;-81
2020/12/31 12:28:25;;;;;;;4.27;2.03;;;11.50;99.90;;;;;;5040586;28;20197;-82
2020/12/31 12:30:51;;;;;;;4.30;1.70;;;11.50;99.90;;;;;;5036819;28;20958;-81
2020/12/31 12:33:18;;;;;;;6.83;2.20;;;11.60;99.90;;;;;;5038592;28;20227;-80
2020/12/31 12:35:44;;;;;;;2.90;1.80;;;11.60;99.90;;;;;;5034246;28;20232;-80
2020/12/31 12:38:11;;;;;;;4.20;2.13;;;11.80;99.90;;;;;;5039867;28;20223;-80
2020/12/31 12:40:37;;;;;;;3.87;2.07;;;11.90;99.90;;;;;;5040429;28;20319;-80
2020/12/31 12:43:13;;;;;;;3.57;2.00;;;12.00;99.90;;;;;;5040674;28;20686;-81
2020/12/31 12:45:39;;;;;;;5.33;2.00;;;12.10;99.90;;;;;;5039140;28;20238;-80
2020/12/31 12:48:06;;;;;;;5.17;2.10;;;11.90;99.90;;;;;;5033956;28;20694;-80
2020/12/31 12:50:32;;;;;;;4.97;2.20;;;11.90;99.90;;;;;;5035898;28;20236;-80
2020/12/31 12:52:59;;;;;;;6.30;1.97;;;11.60;99.90;;;;;;5033821;28;20236;-80
2020/12/31 12:55:25;;;;;;;5.10;1.93;;;10.80;99.90;;;;;;5031845;28;20703;-80
2020/12/31 12:57:52;;;;;;;5.97;2.20;;;9.90;99.90;;;;;;5043929;28;20311;-80
2020/12/31 13:00:20;;;;;;;5.77;2.30;;;9.50;99.90;;;;;;5036793;28;20248;-80
2020/12/31 13:02:46;;;;;;;5.83;2.53;;;9.40;99.90;;;;;;5033934;28;20736;-80
2020/12/31 13:05:13;;;;;;;5.77;2.10;;;9.60;99.90;;;;;;5038777;28;20239;-80
2020/12/31 13:07:39;;;;;;;3.53;1.97;;;9.30;99.90;;;;;;5053567;28;20702;-80
2020/12/31 13:10:07;;;;;;;5.43;2.30;;;9.40;99.90;;;;;;5042742;28;20204;-79
2020/12/31 13:12:33;;;;;;;5.83;2.00;;;9.30;99.90;;;;;;5036590;28;20731;-81
2020/12/31 13:15:00;;;;;;;4.73;2.10;;;9.50;99.90;;;;;;5033285;28;20236;-81
2020/12/31 13:17:27;;;;;;;6.77;2.30;;;9.60;99.90;;;;;;5038397;28;20723;-80
2020/12/31 13:19:53;;;;;;;5.07;1.80;;;9.30;99.90;;;;;;5043072;28;20707;-79
2020/12/31 13:22:20;;;;;;;6.10;2.10;;;9.70;99.90;;;;;;5044678;28;20239;-79
2020/12/31 13:24:46;;;;;;;6.30;2.10;;;10.20;99.90;;;;;;5038411;28;20242;-80
2020/12/31 13:27:13;;;;;;;7.97;2.67;;;10.30;99.90;;;;;;5050242;28;20242;-80
2020/12/31 13:29:39;;;;;;;7.37;2.97;;;9.80;99.90;;;;;;5035362;28;20236;-80
2020/12/31 13:32:05;;;;;;;8.47;3.40;;;9.70;99.90;;;;;;5036724;28;20702;-79
2020/12/31 13:34:33;;;;;;;5.63;2.90;;;9.60;99.90;;;;;;5042738;28;20629;-79
2020/12/31 13:36:59;;;;;;;5.57;2.80;;;9.30;99.90;;;;;;5035305;28;20303;-79